createdAt,value
2023-07-31T00:01:48.248Z,59.42
2023-07-31T00:04:21.218Z,59.59
2023-07-31T00:06:54.066Z,59.90
2023-07-31T00:09:28.270Z,60.26
2023-07-31T00:12:01.227Z,60.24
2023-07-31T00:14:34.261Z,60.14
2023-07-31T00:17:07.784Z,60.34
2023-07-31T00:19:40.696Z,60.27
2023-07-31T00:22:13.590Z,60.53
2023-07-31T00:24:48.176Z,60.29
2023-07-31T00:27:21.156Z,60.36
2023-07-31T00:29:54.315Z,60.49
2023-07-31T00:32:30.493Z,60.58
2023-07-31T00:35:05.027Z,60.50
2023-07-31T00:37:37.958Z,60.83
2023-07-31T00:40:12.502Z,60.78
2023-07-31T00:42:45.498Z,60.98
2023-07-31T00:45:18.696Z,60.99
2023-07-31T00:47:52.153Z,61.02
2023-07-31T00:50:26.975Z,61.13
2023-07-31T00:53:00.012Z,61.27
2023-07-31T00:55:34.630Z,61.05
2023-07-31T00:58:07.736Z,61.43
2023-07-31T01:00:40.649Z,61.46
2023-07-31T01:03:13.995Z,61.34
2023-07-31T01:05:53.153Z,60.86
2023-07-31T01:08:34.959Z,61.39
2023-07-31T01:11:17.626Z,61.73
2023-07-31T01:13:52.317Z,62.40
2023-07-31T01:16:27.225Z,62.71
2023-07-31T01:19:00.226Z,62.30
2023-07-31T01:21:47.660Z,62.39
2023-07-31T01:24:30.737Z,62.59
2023-07-31T01:27:11.206Z,62.72
2023-07-31T01:29:49.325Z,62.79
2023-07-31T01:32:24.845Z,63.36
2023-07-31T01:35:00.506Z,63.24
2023-07-31T01:37:33.710Z,63.42
2023-07-31T01:40:08.638Z,63.08
2023-07-31T01:42:42.875Z,63.53
2023-07-31T01:45:15.816Z,63.29
2023-07-31T01:47:48.865Z,63.48
2023-07-31T01:50:21.889Z,63.35
2023-07-31T01:52:54.747Z,63.61
2023-07-31T01:55:27.649Z,63.60
2023-07-31T01:58:01.983Z,64.16
2023-07-31T02:00:34.881Z,64.10
2023-07-31T02:03:08.254Z,64.05
2023-07-31T02:05:46.923Z,64.62
2023-07-31T02:08:19.883Z,64.78
2023-07-31T02:10:53.303Z,64.59
2023-07-31T02:13:27.376Z,63.81
2023-07-31T02:16:00.068Z,63.22
2023-07-31T02:18:32.980Z,63.77
2023-07-31T02:21:06.195Z,63.91
2023-07-31T02:23:39.186Z,64.47
2023-07-31T02:26:12.246Z,64.30
2023-07-31T02:28:46.556Z,64.77
2023-07-31T02:31:21.373Z,64.36
2023-07-31T02:33:56.018Z,64.40
2023-07-31T02:36:28.910Z,64.69
2023-07-31T02:39:02.514Z,64.35
2023-07-31T02:41:35.467Z,64.50
2023-07-31T02:44:11.427Z,64.15
2023-07-31T02:46:44.305Z,64.32
2023-07-31T02:49:19.048Z,63.91
2023-07-31T02:51:52.163Z,63.50
2023-07-31T02:54:25.088Z,63.71
2023-07-31T02:56:58.034Z,63.65
2023-07-31T02:59:32.471Z,63.49
2023-07-31T03:02:05.931Z,63.44
2023-07-31T03:04:38.625Z,63.15
2023-07-31T03:07:11.570Z,63.06
2023-07-31T03:09:45.173Z,63.08
2023-07-31T03:12:18.076Z,63.15
2023-07-31T03:14:52.226Z,63.53
2023-07-31T03:17:25.044Z,63.12
2023-07-31T03:19:58.056Z,63.50
2023-07-31T03:22:30.954Z,63.53
2023-07-31T03:25:03.861Z,63.42
2023-07-31T03:27:36.724Z,63.05
2023-07-31T03:30:11.808Z,62.95
2023-07-31T03:32:44.770Z,63.09
2023-07-31T03:35:17.714Z,62.94
2023-07-31T03:37:50.624Z,62.79
2023-07-31T03:40:23.489Z,62.68
2023-07-31T03:42:56.611Z,62.64
2023-07-31T03:45:30.923Z,62.45
2023-07-31T03:48:04.507Z,62.25
2023-07-31T03:50:37.395Z,62.01
2023-07-31T03:53:10.229Z,62.27
2023-07-31T03:55:43.119Z,61.92
2023-07-31T03:58:16.042Z,62.42
2023-07-31T04:00:50.502Z,61.72
2023-07-31T04:03:23.424Z,61.69
2023-07-31T04:05:56.651Z,61.86
2023-07-31T04:08:29.524Z,62.14
2023-07-31T04:11:02.530Z,62.05
2023-07-31T04:13:35.383Z,62.01
2023-07-31T04:16:09.573Z,61.91
2023-07-31T04:18:42.453Z,62.01
2023-07-31T04:21:15.313Z,62.28
2023-07-31T04:23:48.156Z,61.92
2023-07-31T04:26:21.007Z,62.11
2023-07-31T04:28:53.851Z,61.75
2023-07-31T04:31:28.231Z,62.09
2023-07-31T04:34:01.152Z,62.01
2023-07-31T04:36:34.047Z,61.72
2023-07-31T04:39:06.906Z,61.49
2023-07-31T04:41:39.763Z,61.48
2023-07-31T04:44:12.885Z,61.13
2023-07-31T04:46:47.134Z,60.83
2023-07-31T04:49:20.316Z,60.92
2023-07-31T04:51:53.180Z,60.59
2023-07-31T04:54:27.562Z,60.48
2023-07-31T04:57:00.644Z,60.13
2023-07-31T04:59:33.591Z,60.10
2023-07-31T05:02:10.438Z,60.15
2023-07-31T05:04:43.319Z,60.23
2023-07-31T05:07:16.585Z,59.91
2023-07-31T05:09:49.479Z,60.27
2023-07-31T05:12:22.339Z,60.05
2023-07-31T05:14:55.178Z,60.16
2023-07-31T05:17:29.391Z,60.25
2023-07-31T05:20:02.300Z,60.08
2023-07-31T05:22:35.208Z,59.95
2023-07-31T05:25:08.937Z,60.08
2023-07-31T05:27:41.860Z,59.78
2023-07-31T05:30:14.711Z,60.06
2023-07-31T05:32:48.915Z,59.73
2023-07-31T05:35:21.880Z,59.34
2023-07-31T05:38:01.810Z,59.28
2023-07-31T05:40:48.659Z,58.93
2023-07-31T05:43:21.473Z,59.01
2023-07-31T05:45:54.380Z,58.84
2023-07-31T05:48:38.663Z,58.50
2023-07-31T05:51:11.514Z,58.35
2023-07-31T05:53:44.792Z,58.27
2023-07-31T05:56:17.480Z,58.23
2023-07-31T05:58:51.484Z,57.88
2023-07-31T06:01:24.416Z,57.80
2023-07-31T06:03:58.691Z,58.20
2023-07-31T06:06:31.744Z,57.95
2023-07-31T06:09:04.817Z,57.69
2023-07-31T06:11:37.721Z,57.59
2023-07-31T06:14:10.635Z,57.82
2023-07-31T06:16:45.163Z,58.06
2023-07-31T06:19:19.526Z,57.86
2023-07-31T06:21:52.439Z,57.76
2023-07-31T06:24:25.462Z,57.41
2023-07-31T06:26:58.755Z,56.80
2023-07-31T06:29:31.635Z,56.78
2023-07-31T06:32:06.033Z,55.98
2023-07-31T06:34:40.272Z,56.00
2023-07-31T06:37:13.162Z,55.61
2023-07-31T06:39:46.029Z,55.42
2023-07-31T06:42:18.886Z,55.51
2023-07-31T06:44:52.059Z,55.32
2023-07-31T06:47:25.042Z,55.31
2023-07-31T06:52:56.783Z,54.24
2023-07-31T06:55:29.657Z,54.17
2023-07-31T06:58:02.517Z,53.49
2023-07-31T07:00:35.597Z,52.93
2023-07-31T07:03:08.470Z,52.94
2023-07-31T07:05:43.224Z,52.81
2023-07-31T07:08:16.237Z,53.03
2023-07-31T07:10:49.263Z,52.94
2023-07-31T07:13:22.180Z,53.17
2023-07-31T07:15:55.157Z,52.40
2023-07-31T07:18:28.211Z,51.83
2023-07-31T07:21:03.540Z,51.47
2023-07-31T07:23:36.510Z,51.20
2023-07-31T07:26:09.394Z,51.01
2023-07-31T07:28:42.324Z,50.83
2023-07-31T07:31:18.288Z,50.71
2023-07-31T07:33:51.197Z,50.83
2023-07-31T07:36:25.453Z,50.17
2023-07-31T07:38:58.857Z,50.35
2023-07-31T07:41:31.810Z,50.15
2023-07-31T07:44:04.817Z,49.23
2023-07-31T07:46:38.166Z,47.76
2023-07-31T07:49:11.310Z,46.57
2023-07-31T07:51:45.540Z,46.71
2023-07-31T07:54:18.989Z,46.81
2023-07-31T07:56:51.854Z,46.78
2023-07-31T07:59:24.942Z,45.78
2023-07-31T08:01:58.735Z,45.10
2023-07-31T08:04:31.668Z,45.31
2023-07-31T08:07:06.351Z,45.66
2023-07-31T08:09:39.477Z,44.76
2023-07-31T08:12:12.422Z,44.87
2023-07-31T08:14:45.293Z,45.39
2023-07-31T08:17:18.133Z,44.77
2023-07-31T08:19:51.047Z,43.66
2023-07-31T08:22:25.571Z,44.30
2023-07-31T08:24:58.567Z,43.30
2023-07-31T08:27:31.492Z,42.40
2023-07-31T08:30:04.780Z,42.13
2023-07-31T08:32:37.674Z,42.01
2023-07-31T08:35:10.587Z,42.02
2023-07-31T08:37:44.857Z,41.77
2023-07-31T08:40:17.971Z,41.21
2023-07-31T08:42:52.098Z,42.10
2023-07-31T08:45:25.007Z,40.93
2023-07-31T08:47:58.556Z,40.27
2023-07-31T08:50:31.801Z,39.60
2023-07-31T08:53:06.119Z,39.22
2023-07-31T08:55:40.326Z,38.65
2023-07-31T08:58:15.201Z,37.36
2023-07-31T09:00:50.375Z,35.46
2023-07-31T09:03:26.911Z,34.69
2023-07-31T09:06:00.459Z,33.84
2023-07-31T09:08:34.726Z,33.83
2023-07-31T09:11:08.182Z,34.31
2023-07-31T09:13:42.416Z,34.80
2023-07-31T09:16:15.626Z,35.83
2023-07-31T09:18:59.735Z,36.43
2023-07-31T09:21:32.656Z,36.91
2023-07-31T09:24:06.983Z,37.96
2023-07-31T09:26:39.982Z,37.86
2023-07-31T09:29:21.850Z,37.21
2023-07-31T09:31:55.536Z,36.42
2023-07-31T09:34:38.692Z,35.39
2023-07-31T09:37:13.386Z,33.86
2023-07-31T09:39:55.854Z,32.59
2023-07-31T09:42:30.438Z,31.83
2023-07-31T09:45:10.842Z,31.56
2023-07-31T09:47:49.553Z,31.76
2023-07-31T09:50:24.915Z,32.24
2023-07-31T09:52:58.169Z,31.64
2023-07-31T09:55:32.737Z,30.93
2023-07-31T09:58:06.866Z,30.53
2023-07-31T10:00:40.220Z,30.44
2023-07-31T10:03:13.483Z,29.83
2023-07-31T10:05:51.811Z,29.74
2023-07-31T10:08:32.381Z,30.07
2023-07-31T10:11:09.424Z,29.70
2023-07-31T10:13:44.138Z,29.02
2023-07-31T10:16:18.313Z,29.21
2023-07-31T10:18:52.980Z,29.04
2023-07-31T10:21:25.904Z,29.07
2023-07-31T10:23:59.474Z,30.04
2023-07-31T10:26:34.246Z,31.44
2023-07-31T10:29:08.550Z,31.71
2023-07-31T10:31:42.255Z,32.07
2023-07-31T10:34:15.811Z,32.49
2023-07-31T10:36:50.388Z,32.91
2023-07-31T10:39:36.912Z,32.92
2023-07-31T10:42:15.236Z,33.82
2023-07-31T10:44:51.163Z,34.93
2023-07-31T10:47:24.049Z,35.14
2023-07-31T10:50:29.546Z,35.41
2023-07-31T10:53:02.988Z,35.71
2023-07-31T10:55:41.761Z,36.30
2023-07-31T10:58:20.170Z,36.18
2023-07-31T11:00:58.029Z,37.00
2023-07-31T11:03:44.074Z,37.09
2023-07-31T11:06:19.142Z,36.76
2023-07-31T11:08:53.080Z,36.88
2023-07-31T11:11:26.114Z,37.47
2023-07-31T11:14:00.359Z,37.37
2023-07-31T11:16:33.262Z,37.47
2023-07-31T11:19:10.862Z,36.85
2023-07-31T11:21:43.929Z,36.54
2023-07-31T11:24:16.950Z,36.72
2023-07-31T11:26:53.619Z,36.72
2023-07-31T11:29:29.884Z,36.49
2023-07-31T11:32:03.356Z,36.19
2023-07-31T11:34:53.373Z,36.05
2023-07-31T11:37:26.401Z,36.17
2023-07-31T11:40:02.141Z,36.47
2023-07-31T11:42:35.995Z,37.22
2023-07-31T11:45:11.498Z,37.67
2023-07-31T11:47:44.515Z,37.56
2023-07-31T11:50:17.418Z,37.62
2023-07-31T11:52:52.835Z,38.57
2023-07-31T11:55:26.617Z,38.69
2023-07-31T11:58:01.159Z,38.23
2023-07-31T12:00:35.702Z,38.63
2023-07-31T12:03:09.209Z,37.83
2023-07-31T12:05:42.216Z,38.28
2023-07-31T12:08:15.193Z,37.36
2023-07-31T12:10:48.971Z,36.74
2023-07-31T12:13:24.163Z,36.36
2023-07-31T12:15:59.947Z,36.41
2023-07-31T12:18:36.644Z,35.17
2023-07-31T12:21:12.565Z,35.67
2023-07-31T12:23:46.580Z,35.09
2023-07-31T12:26:19.590Z,34.73
2023-07-31T12:28:52.593Z,35.04
2023-07-31T12:31:30.804Z,35.08
2023-07-31T12:34:03.836Z,35.25
2023-07-31T12:36:37.420Z,35.76
2023-07-31T12:39:11.010Z,35.13
2023-07-31T12:41:43.947Z,35.43
2023-07-31T12:44:16.858Z,36.08
2023-07-31T12:46:51.106Z,35.83
2023-07-31T12:49:24.452Z,35.77
2023-07-31T12:51:57.354Z,36.33
2023-07-31T12:54:30.176Z,35.54
2023-07-31T12:57:03.021Z,35.65
2023-07-31T12:59:37.782Z,36.10
2023-07-31T13:02:12.194Z,35.97
2023-07-31T13:04:45.210Z,36.35
2023-07-31T13:07:18.259Z,36.55
2023-07-31T13:09:51.043Z,36.66
2023-07-31T13:12:23.938Z,37.09
2023-07-31T13:14:56.955Z,37.42
2023-07-31T13:17:31.255Z,37.74
2023-07-31T13:20:04.795Z,37.95
2023-07-31T13:22:37.785Z,38.38
2023-07-31T13:25:10.915Z,38.38
2023-07-31T13:27:43.603Z,38.44
2023-07-31T13:30:16.523Z,38.23
2023-07-31T13:32:50.916Z,38.36
2023-07-31T13:35:23.736Z,37.84
2023-07-31T13:37:56.586Z,37.58
2023-07-31T13:40:29.505Z,37.47
2023-07-31T13:43:02.342Z,38.00
2023-07-31T13:45:35.305Z,37.11
2023-07-31T13:48:10.292Z,37.47
2023-07-31T13:50:43.294Z,37.51
2023-07-31T13:53:16.153Z,37.89
2023-07-31T13:55:50.372Z,37.74
2023-07-31T13:58:23.353Z,37.72
2023-07-31T14:00:56.262Z,38.32
2023-07-31T14:03:30.619Z,38.03
2023-07-31T14:06:03.793Z,38.56
2023-07-31T14:08:36.468Z,38.03
2023-07-31T14:11:09.352Z,38.48
2023-07-31T14:13:42.256Z,38.09
2023-07-31T14:16:15.314Z,38.28
2023-07-31T14:18:49.597Z,38.12
2023-07-31T14:21:22.624Z,37.98
2023-07-31T14:23:55.486Z,37.76
2023-07-31T14:26:28.372Z,37.74
2023-07-31T14:29:01.276Z,37.70
2023-07-31T14:31:34.176Z,37.62
2023-07-31T14:34:08.504Z,37.72
2023-07-31T14:36:41.749Z,38.06
2023-07-31T14:39:15.036Z,37.69
2023-07-31T14:41:49.136Z,38.14
2023-07-31T14:44:22.171Z,37.73
2023-07-31T14:46:55.089Z,38.03
2023-07-31T14:49:29.523Z,37.77
2023-07-31T14:52:02.494Z,37.84
2023-07-31T14:54:35.388Z,37.49
2023-07-31T14:57:08.512Z,37.85
2023-07-31T14:59:41.197Z,37.84
2023-07-31T15:02:14.542Z,38.27
2023-07-31T15:04:48.796Z,38.80
2023-07-31T15:07:21.632Z,38.55
2023-07-31T15:09:54.646Z,38.74
2023-07-31T15:12:27.765Z,38.50
2023-07-31T15:15:00.817Z,38.79
2023-07-31T15:17:33.757Z,38.50
2023-07-31T15:20:09.922Z,39.03
2023-07-31T15:22:42.814Z,39.23
2023-07-31T15:25:15.683Z,39.08
2023-07-31T15:27:48.556Z,39.61
2023-07-31T15:30:21.392Z,39.82
2023-07-31T15:32:54.520Z,39.48
2023-07-31T15:35:28.513Z,39.01
2023-07-31T15:38:01.369Z,39.40
2023-07-31T15:40:34.341Z,39.36
2023-07-31T15:43:07.287Z,39.36
2023-07-31T15:45:40.328Z,39.77
2023-07-31T15:48:13.042Z,39.34
2023-07-31T15:50:57.902Z,40.13
2023-07-31T15:53:31.290Z,40.19
2023-07-31T15:56:04.242Z,40.38
2023-07-31T15:58:37.074Z,40.33
2023-07-31T16:01:10.174Z,40.83
2023-07-31T16:03:46.311Z,40.97
2023-07-31T16:06:20.652Z,41.29
2023-07-31T16:08:53.594Z,41.37
2023-07-31T16:11:26.532Z,41.52
2023-07-31T16:13:59.843Z,41.60
2023-07-31T16:16:32.898Z,41.93
2023-07-31T16:19:05.765Z,41.60
2023-07-31T16:21:40.584Z,41.97
2023-07-31T16:24:13.646Z,41.65
2023-07-31T16:26:46.525Z,42.15
2023-07-31T16:29:19.429Z,42.23
2023-07-31T16:31:57.915Z,42.26
2023-07-31T16:34:31.430Z,42.31
2023-07-31T16:37:06.215Z,42.54
2023-07-31T16:39:39.079Z,42.30
2023-07-31T16:42:11.921Z,42.36
2023-07-31T16:44:44.795Z,42.66
2023-07-31T16:47:17.989Z,42.36
2023-07-31T16:49:50.752Z,42.37
2023-07-31T16:52:25.087Z,42.61
2023-07-31T16:54:58.008Z,42.97
2023-07-31T16:57:33.517Z,43.29
2023-07-31T17:00:07.656Z,43.06
2023-07-31T17:02:40.886Z,43.12
2023-07-31T17:05:13.854Z,43.45
2023-07-31T17:07:48.370Z,43.55
2023-07-31T17:10:21.459Z,43.18
2023-07-31T17:12:54.392Z,43.60
2023-07-31T17:15:27.553Z,43.52
2023-07-31T17:18:00.286Z,42.76
2023-07-31T17:20:34.208Z,43.49
2023-07-31T17:23:08.390Z,43.67
2023-07-31T17:25:41.520Z,44.01
2023-07-31T17:28:14.406Z,43.79
2023-07-31T17:30:47.710Z,43.85
2023-07-31T17:33:20.613Z,43.88
2023-07-31T17:35:53.474Z,43.97
2023-07-31T17:38:27.730Z,43.99
2023-07-31T17:41:00.777Z,44.07
2023-07-31T17:43:33.714Z,44.13
2023-07-31T17:46:06.633Z,44.45
2023-07-31T17:48:39.858Z,44.65
2023-07-31T17:51:12.481Z,43.88
2023-07-31T17:53:46.706Z,44.54
2023-07-31T17:56:19.701Z,44.48
2023-07-31T17:58:52.635Z,44.61
2023-07-31T18:01:25.628Z,44.55
2023-07-31T18:03:58.556Z,44.91
2023-07-31T18:06:35.127Z,44.70
2023-07-31T18:09:11.145Z,44.82
2023-07-31T18:11:44.064Z,45.35
2023-07-31T18:14:17.029Z,45.06
2023-07-31T18:16:49.946Z,45.05
2023-07-31T18:19:22.850Z,45.64
2023-07-31T18:21:55.695Z,45.17
2023-07-31T18:24:29.890Z,45.20
2023-07-31T18:27:38.402Z,45.22
2023-07-31T18:30:12.983Z,45.23
2023-07-31T18:32:45.967Z,45.61
2023-07-31T18:35:21.283Z,45.58
2023-07-31T18:37:54.149Z,45.74
2023-07-31T18:40:28.483Z,45.60
2023-07-31T18:43:01.370Z,45.78
2023-07-31T18:45:36.942Z,46.13
2023-07-31T18:48:09.971Z,46.29
2023-07-31T18:50:44.103Z,45.98
2023-07-31T18:53:18.715Z,45.79
2023-07-31T18:55:53.538Z,46.35
2023-07-31T18:58:26.440Z,46.32
2023-07-31T19:00:59.311Z,46.25
2023-07-31T19:03:32.222Z,46.24
2023-07-31T19:06:06.435Z,46.31
2023-07-31T19:08:39.300Z,46.26
2023-07-31T19:11:24.419Z,46.41
2023-07-31T19:14:04.714Z,46.78
2023-07-31T19:16:37.914Z,46.49
2023-07-31T19:19:11.257Z,46.63
2023-07-31T19:21:44.228Z,46.55
2023-07-31T19:24:17.215Z,46.89
2023-07-31T19:26:51.449Z,47.06
2023-07-31T19:29:24.380Z,47.45
2023-07-31T19:31:57.984Z,47.20
2023-07-31T19:34:30.941Z,47.45
2023-07-31T19:37:03.842Z,47.91
2023-07-31T19:39:36.778Z,48.06
2023-07-31T19:42:11.237Z,48.33
2023-07-31T19:44:44.213Z,48.69
2023-07-31T19:47:17.203Z,48.46
2023-07-31T19:49:50.089Z,48.82
2023-07-31T19:52:23.008Z,48.91
2023-07-31T19:54:55.876Z,48.66
2023-07-31T19:57:30.137Z,49.40
2023-07-31T20:00:03.795Z,49.38
2023-07-31T20:02:42.887Z,49.14
2023-07-31T20:05:16.206Z,49.22
2023-07-31T20:07:49.968Z,49.30
2023-07-31T20:10:22.876Z,49.14
2023-07-31T20:12:57.131Z,49.20
2023-07-31T20:15:30.030Z,49.68
2023-07-31T20:18:04.658Z,49.28
2023-07-31T20:20:40.657Z,49.74
2023-07-31T20:23:13.805Z,49.86
2023-07-31T20:25:47.846Z,49.68
2023-07-31T20:28:22.118Z,49.90
2023-07-31T20:30:55.190Z,49.65
2023-07-31T20:33:28.363Z,49.67
2023-07-31T20:36:01.406Z,50.00
2023-07-31T20:38:34.352Z,50.08
2023-07-31T20:41:07.271Z,49.91
2023-07-31T20:43:41.564Z,50.32
2023-07-31T20:46:14.491Z,50.25
2023-07-31T20:48:47.838Z,50.50
2023-07-31T20:51:21.360Z,49.76
2023-07-31T20:53:54.826Z,50.22
2023-07-31T20:56:27.750Z,50.36
2023-07-31T20:59:21.180Z,49.99
2023-07-31T21:01:54.082Z,50.26
2023-07-31T21:04:27.037Z,50.26
2023-07-31T21:06:59.899Z,50.21
2023-07-31T21:09:32.774Z,50.32
2023-07-31T21:12:06.620Z,50.30
2023-07-31T21:14:43.329Z,50.10
2023-07-31T21:17:16.200Z,50.57
2023-07-31T21:19:49.975Z,50.35
2023-07-31T21:22:22.934Z,50.72
2023-07-31T21:24:56.137Z,50.31
2023-07-31T21:27:29.610Z,50.51
2023-07-31T21:30:04.070Z,50.84
2023-07-31T21:32:37.065Z,50.79
2023-07-31T21:35:09.995Z,50.43
2023-07-31T21:37:42.924Z,50.37
2023-07-31T21:40:15.993Z,50.62
2023-07-31T21:42:51.154Z,50.79
2023-07-31T21:45:25.633Z,50.84
2023-07-31T21:47:59.371Z,50.95
2023-07-31T21:50:32.386Z,50.71
2023-07-31T21:53:05.384Z,50.79
2023-07-31T21:55:38.335Z,50.90
2023-07-31T21:58:11.210Z,50.59
2023-07-31T22:00:45.585Z,51.00
2023-07-31T22:03:18.513Z,51.14
2023-07-31T22:05:51.955Z,50.74
2023-07-31T22:08:24.951Z,51.06
2023-07-31T22:10:57.840Z,51.17
2023-07-31T22:13:30.724Z,50.77
2023-07-31T22:16:05.204Z,50.72
2023-07-31T22:18:38.171Z,50.76
2023-07-31T22:21:13.047Z,50.91
2023-07-31T22:23:45.995Z,51.21
2023-07-31T22:26:18.869Z,51.33
2023-07-31T22:28:51.855Z,51.28
2023-07-31T22:31:26.080Z,51.30
2023-07-31T22:33:58.969Z,51.58
2023-07-31T22:36:31.889Z,52.14
2023-07-31T22:39:05.311Z,51.94
2023-07-31T22:41:38.221Z,52.55
2023-07-31T22:44:11.136Z,52.26
2023-07-31T22:46:45.424Z,52.45
2023-07-31T22:49:18.291Z,52.74
2023-07-31T22:51:53.997Z,53.00
2023-07-31T22:54:26.872Z,53.00
2023-07-31T22:56:59.768Z,53.21
2023-07-31T22:59:32.624Z,53.46
2023-07-31T23:02:09.593Z,53.52
2023-07-31T23:04:42.609Z,53.75
2023-07-31T23:07:15.462Z,53.59
2023-07-31T23:09:52.179Z,53.61
2023-07-31T23:12:24.992Z,53.60
2023-07-31T23:14:57.849Z,53.85
2023-07-31T23:17:32.160Z,54.16
2023-07-31T23:20:05.621Z,53.95
2023-07-31T23:22:38.843Z,53.38
2023-07-31T23:25:11.760Z,53.49
2023-07-31T23:27:45.434Z,53.77
2023-07-31T23:30:18.359Z,54.30
2023-07-31T23:32:52.704Z,54.27
2023-07-31T23:35:29.808Z,54.11
2023-07-31T23:38:03.122Z,54.58
2023-07-31T23:40:36.018Z,54.43
2023-07-31T23:43:09.150Z,54.52
2023-07-31T23:45:42.126Z,54.76
2023-07-31T23:48:16.504Z,54.83
2023-07-31T23:50:49.524Z,54.58
2023-07-31T23:53:22.687Z,54.58
2023-07-31T23:55:55.777Z,54.96
2023-07-31T23:58:28.808Z,54.88
